createdAt,value
2018-12-23T00:01:42.840Z,12.10
2018-12-23T00:03:47.105Z,17.17
2018-12-23T00:05:51.375Z,15.13
2018-12-23T00:07:56.196Z,12.60
2018-12-23T00:10:00.573Z,12.37
2018-12-23T00:12:08.567Z,11.77
2018-12-23T00:14:14.298Z,14.33
2018-12-23T00:16:18.604Z,13.20
2018-12-23T00:18:23.500Z,15.07
2018-12-23T00:20:27.890Z,11.67
2018-12-23T00:22:32.584Z,12.40
2018-12-23T00:24:36.911Z,15.97
2018-12-23T00:26:41.260Z,11.27
2018-12-23T00:28:47.894Z,14.43
2018-12-23T00:30:52.647Z,10.90
2018-12-23T00:32:57.821Z,10.47
2018-12-23T00:35:02.183Z,13.63
2018-12-23T00:37:10.117Z,15.67
2018-12-23T00:39:16.638Z,12.10
2018-12-23T00:41:26.124Z,10.97
2018-12-23T00:43:31.558Z,15.90
2018-12-23T00:45:41.697Z,12.20
2018-12-23T00:47:47.596Z,13.73
2018-12-23T00:49:58.392Z,8.40
2018-12-23T00:52:04.221Z,8.83
2018-12-23T00:54:09.556Z,14.53
2018-12-23T00:56:15.718Z,16.97
2018-12-23T00:58:26.068Z,9.97
2018-12-23T01:00:32.333Z,13.07
2018-12-23T01:02:42.618Z,9.83
2018-12-23T01:04:50.581Z,13.20
2018-12-23T01:06:59.376Z,12.80
2018-12-23T01:09:10.273Z,15.00
2018-12-23T01:11:16.243Z,12.77
2018-12-23T01:13:23.086Z,14.13
2018-12-23T01:15:27.700Z,10.77
2018-12-23T01:17:38.155Z,13.10
2018-12-23T01:19:46.097Z,10.97
2018-12-23T01:21:50.491Z,11.97
2018-12-23T01:23:57.358Z,14.60
2018-12-23T01:26:05.813Z,13.83
2018-12-23T01:28:10.368Z,12.83
2018-12-23T01:30:17.716Z,9.57
2018-12-23T01:32:22.017Z,10.40
2018-12-23T01:34:26.274Z,15.87
2018-12-23T01:36:30.500Z,11.73
2018-12-23T01:38:35.750Z,14.87
2018-12-23T01:40:40.032Z,11.80
2018-12-23T01:42:44.278Z,10.90
2018-12-23T01:44:48.653Z,15.13
2018-12-23T01:46:52.949Z,15.90
2018-12-23T01:48:58.021Z,12.37
2018-12-23T01:51:02.441Z,11.63
2018-12-23T01:53:06.692Z,16.07
2018-12-23T01:55:10.982Z,10.30
2018-12-23T01:57:15.280Z,13.93
2018-12-23T01:59:19.694Z,12.90
2018-12-23T02:01:24.207Z,14.20
2018-12-23T02:03:28.656Z,13.87
2018-12-23T02:05:45.867Z,12.33
2018-12-23T02:07:43.977Z,14.07
2018-12-23T02:09:48.224Z,13.83
2018-12-23T02:11:52.601Z,13.00
2018-12-23T02:14:00.176Z,10.17
2018-12-23T02:17:33.003Z,13.27
2018-12-23T02:19:51.459Z,10.83
2018-12-23T02:22:11.602Z,12.83
2018-12-23T02:35:55.385Z,15.77
2018-12-23T02:38:18.330Z,13.47
2018-12-23T02:40:35.954Z,10.07
2018-12-23T02:45:14.155Z,12.53
2018-12-23T02:58:41.289Z,11.23
2018-12-23T03:01:02.921Z,11.47
2018-12-23T03:05:36.938Z,11.63
2018-12-23T03:07:56.872Z,10.97
2018-12-23T03:23:58.580Z,10.80
2018-12-23T03:38:15.614Z,13.13
2018-12-23T03:40:22.904Z,11.60
2018-12-23T03:42:49.861Z,16.17
2018-12-23T03:44:55.542Z,10.33
2018-12-23T03:52:42.688Z,12.53
2018-12-23T03:55:26.290Z,11.97
2018-12-23T04:19:54.363Z,11.30
2018-12-23T04:22:18.882Z,12.67
2018-12-23T04:24:24.457Z,11.00
2018-12-23T04:28:39.118Z,15.50
2018-12-23T04:30:55.743Z,18.20
2018-12-23T04:33:11.367Z,14.03
2018-12-23T04:35:35.484Z,11.07
2018-12-23T04:37:52.658Z,12.30
2018-12-23T04:40:09.064Z,13.67
2018-12-23T04:42:24.590Z,14.47
2018-12-23T04:44:48.778Z,12.33
2018-12-23T04:47:03.990Z,13.87
2018-12-23T04:49:21.216Z,14.57
2018-12-23T04:51:38.171Z,12.40
2018-12-23T04:53:55.371Z,15.23
2018-12-23T04:56:12.655Z,10.23
2018-12-23T04:58:29.646Z,14.37
2018-12-23T05:00:46.663Z,13.23
2018-12-23T05:03:06.211Z,11.90
2018-12-23T05:05:23.222Z,11.80
2018-12-23T05:07:40.345Z,13.30
2018-12-23T05:09:45.873Z,12.97
2018-12-23T05:12:02.278Z,11.60
2018-12-23T05:16:31.977Z,12.60
2018-12-23T05:18:48.811Z,14.23
2018-12-23T05:21:05.755Z,16.07
2018-12-23T05:23:22.531Z,19.00
2018-12-23T05:25:39.783Z,13.90
2018-12-23T05:27:59.311Z,13.70
2018-12-23T05:30:18.393Z,12.60
2018-12-23T05:32:35.415Z,13.17
2018-12-23T05:34:52.567Z,18.53
2018-12-23T05:37:12.484Z,17.03
2018-12-23T05:39:17.950Z,15.43
2018-12-23T05:44:17.679Z,12.10
2018-12-23T05:46:34.674Z,12.23
2018-12-23T05:48:51.580Z,12.93
2018-12-23T05:51:08.237Z,18.00
2018-12-23T05:53:25.178Z,11.90
2018-12-23T05:55:48.814Z,13.50
2018-12-23T05:58:05.320Z,11.33
2018-12-23T06:00:24.240Z,18.03
2018-12-23T06:02:41.272Z,11.70
2018-12-23T06:04:58.413Z,12.97
2018-12-23T06:07:15.408Z,15.17
2018-12-23T06:09:32.266Z,11.57
2018-12-23T06:11:48.854Z,17.77
2018-12-23T06:14:05.135Z,10.77
2018-12-23T06:16:22.319Z,11.40
2018-12-23T06:18:39.391Z,14.43
2018-12-23T06:20:44.698Z,13.50
2018-12-23T06:23:08.895Z,15.03
2018-12-23T06:25:33.154Z,14.83
2018-12-23T06:27:50.230Z,13.03
2018-12-23T06:30:07.407Z,19.23
2018-12-23T06:32:24.095Z,12.70
2018-12-23T06:34:40.856Z,14.13
2018-12-23T06:36:57.489Z,13.17
2018-12-23T06:39:13.755Z,13.77
2018-12-23T06:41:30.606Z,13.83
2018-12-23T06:43:46.971Z,11.50
2018-12-23T06:46:06.737Z,16.47
2018-12-23T06:48:23.682Z,13.97
2018-12-23T06:50:40.372Z,12.10
2018-12-23T06:52:57.124Z,13.47
2018-12-23T06:55:15.175Z,12.53
2018-12-23T06:57:31.864Z,13.53
2018-12-23T06:59:37.121Z,8.73
2018-12-23T07:02:01.311Z,9.73
2018-12-23T07:04:25.849Z,15.70
2018-12-23T07:06:42.759Z,10.77
2018-12-23T07:08:59.810Z,11.03
2018-12-23T07:11:19.174Z,14.70
2018-12-23T07:13:35.298Z,12.70
2018-12-23T07:15:51.915Z,13.37
2018-12-23T07:18:07.183Z,14.00
2018-12-23T07:20:31.638Z,10.43
2018-12-23T07:22:48.670Z,12.97
2018-12-23T07:25:08.678Z,10.77
2018-12-23T07:27:28.271Z,14.13
2018-12-23T07:29:45.193Z,10.00
2018-12-23T07:32:02.348Z,10.57
2018-12-23T07:34:20.384Z,11.27
2018-12-23T07:36:36.763Z,13.57
2018-12-23T07:38:53.450Z,11.23
2018-12-23T07:41:10.103Z,11.10
2018-12-23T07:43:27.285Z,12.93
2018-12-23T07:45:43.816Z,10.47
2018-12-23T07:48:00.836Z,14.03
2018-12-23T07:50:07.781Z,11.30
2018-12-23T07:52:13.031Z,13.10
2018-12-23T07:54:37.488Z,9.33
2018-12-23T07:56:57.087Z,13.37
2018-12-23T07:59:15.284Z,11.30
2018-12-23T08:01:31.982Z,10.50
2018-12-23T08:03:49.361Z,10.13
2018-12-23T08:06:33.990Z,9.53
2018-12-23T08:08:50.259Z,13.03
2018-12-23T08:11:07.460Z,12.67
2018-12-23T08:13:26.964Z,11.37
2018-12-23T08:15:39.900Z,12.00
2018-12-23T08:18:05.810Z,11.27
2018-12-23T08:20:22.036Z,14.33
2018-12-23T08:22:38.856Z,9.50
2018-12-23T08:24:57.208Z,12.53
2018-12-23T08:27:14.266Z,10.20
2018-12-23T08:29:19.579Z,9.67
2018-12-23T08:31:44.203Z,8.63
2018-12-23T08:33:49.430Z,11.87
2018-12-23T08:36:13.576Z,11.17
2018-12-23T08:38:59.044Z,10.83
2018-12-23T08:44:27.992Z,9.27
2018-12-23T08:46:44.903Z,15.00
2018-12-23T08:49:02.289Z,7.53
2018-12-23T08:51:18.621Z,15.27
2018-12-23T08:53:34.847Z,10.80
2018-12-23T08:55:51.709Z,8.57
2018-12-23T08:58:07.867Z,13.50
2018-12-23T09:00:28.099Z,15.87
2018-12-23T09:02:46.846Z,9.50
2018-12-23T09:05:05.818Z,11.07
2018-12-23T09:07:23.154Z,15.47
2018-12-23T09:09:47.469Z,12.50
2018-12-23T09:12:11.650Z,14.50
2018-12-23T09:14:28.847Z,15.33
2018-12-23T09:16:48.923Z,10.03
2018-12-23T09:19:07.311Z,13.17
2018-12-23T09:21:24.452Z,13.73
2018-12-23T09:23:42.218Z,11.47
2018-12-23T09:25:58.549Z,16.87
2018-12-23T09:28:17.753Z,13.40
2018-12-23T09:30:34.762Z,18.90
2018-12-23T09:32:51.767Z,13.33
2018-12-23T09:35:08.744Z,12.67
2018-12-23T09:37:27.950Z,14.27
2018-12-23T09:39:45.127Z,17.97
2018-12-23T09:42:02.030Z,12.90
2018-12-23T09:44:07.340Z,22.03
2018-12-23T09:46:12.665Z,14.83
2018-12-23T09:48:37.419Z,15.07
2018-12-23T09:50:54.607Z,12.67
2018-12-23T09:53:20.429Z,20.63
2018-12-23T09:55:37.091Z,15.40
2018-12-23T09:58:03.789Z,15.03
2018-12-23T10:00:23.930Z,14.57
2018-12-23T10:02:29.202Z,19.43
2018-12-23T10:04:53.679Z,17.97
2018-12-23T10:07:10.705Z,18.07
2018-12-23T10:09:27.758Z,16.83
2018-12-23T10:11:53.238Z,15.27
2018-12-23T10:14:12.282Z,19.20
2018-12-23T10:16:28.711Z,16.73
2018-12-23T10:18:46.348Z,22.60
2018-12-23T10:21:04.777Z,17.13
2018-12-23T10:23:21.590Z,15.80
2018-12-23T10:25:38.354Z,14.57
2018-12-23T10:27:45.753Z,16.47
2018-12-23T10:30:28.582Z,19.40
2018-12-23T10:32:47.511Z,17.77
2018-12-23T10:35:04.369Z,20.03
2018-12-23T10:37:20.625Z,16.87
2018-12-23T10:42:00.519Z,21.90
2018-12-23T10:44:17.558Z,16.47
2018-12-23T10:46:34.203Z,16.77
2018-12-23T10:48:51.242Z,16.90
2018-12-23T10:51:15.399Z,20.73
2018-12-23T10:53:58.648Z,16.70
2018-12-23T10:59:05.759Z,20.60
2018-12-23T11:03:46.833Z,20.93
2018-12-23T11:06:06.270Z,15.03
2018-12-23T11:08:26.941Z,20.93
2018-12-23T11:10:40.579Z,15.23
2018-12-23T11:12:58.697Z,18.37
2018-12-23T11:15:15.671Z,18.97
2018-12-23T11:17:41.346Z,14.60
2018-12-23T11:20:24.871Z,21.63
2018-12-23T11:22:48.950Z,28.13
2018-12-23T11:25:04.237Z,19.40
2018-12-23T11:27:27.743Z,20.63
2018-12-23T11:32:03.381Z,14.97
2018-12-23T11:34:19.892Z,21.10
2018-12-23T11:36:36.962Z,26.63
2018-12-23T11:38:53.976Z,33.00
2018-12-23T11:41:10.201Z,24.00
2018-12-23T11:43:15.507Z,28.33
2018-12-23T11:45:39.707Z,29.33
2018-12-23T11:50:32.370Z,22.73
2018-12-23T11:53:15.544Z,20.70
2018-12-23T11:55:28.275Z,27.30
2018-12-23T11:58:11.426Z,30.07
2018-12-23T12:00:16.722Z,25.20
2018-12-23T12:02:52.926Z,24.67
2018-12-23T12:07:53.000Z,20.93
2018-12-23T12:10:00.987Z,26.50
2018-12-23T12:12:23.759Z,24.80
2018-12-23T12:14:40.044Z,23.10
2018-12-23T12:19:54.180Z,24.23
2018-12-23T12:22:12.400Z,26.67
2018-12-23T12:24:29.240Z,21.17
2018-12-23T12:26:49.250Z,26.97
2018-12-23T12:29:10.952Z,26.27
2018-12-23T12:31:31.819Z,25.57
2018-12-23T12:33:37.574Z,19.40
2018-12-23T12:35:43.268Z,20.73
2018-12-23T12:38:07.499Z,21.83
2018-12-23T12:40:41.333Z,27.33
2018-12-23T12:42:47.697Z,27.97
2018-12-23T12:45:04.571Z,23.13
2018-12-23T12:47:24.015Z,19.53
2018-12-23T12:49:43.117Z,21.40
2018-12-23T12:51:59.055Z,23.70
2018-12-23T12:54:18.563Z,22.00
2018-12-23T12:56:35.295Z,28.70
2018-12-23T12:58:52.198Z,28.00
2018-12-23T13:01:09.589Z,19.43
2018-12-23T13:03:27.335Z,24.53
2018-12-23T13:08:08.992Z,23.43
2018-12-23T13:10:39.281Z,31.63
2018-12-23T13:13:22.418Z,25.30
2018-12-23T13:15:27.835Z,23.20
2018-12-23T13:17:54.479Z,33.73
2018-12-23T13:20:11.214Z,29.80
2018-12-23T13:22:49.810Z,26.20
2018-12-23T13:24:56.738Z,23.27
2018-12-23T13:27:16.831Z,28.70
2018-12-23T13:29:33.663Z,27.83
2018-12-23T13:31:59.991Z,27.33
2018-12-23T13:34:40.590Z,35.40
2018-12-23T13:36:57.225Z,27.73
2018-12-23T13:39:16.458Z,28.00
2018-12-23T13:41:38.772Z,22.20
2018-12-23T13:44:34.205Z,22.67
2018-12-23T13:46:40.430Z,16.90
2018-12-23T13:48:58.443Z,17.47
2018-12-23T13:51:33.042Z,23.23
2018-12-23T13:54:16.638Z,23.87
2018-12-23T14:00:07.269Z,24.83
2018-12-23T14:02:32.464Z,24.07
2018-12-23T14:04:48.926Z,20.20
2018-12-23T14:07:08.269Z,24.73
2018-12-23T14:09:43.501Z,18.30
2018-12-23T14:14:43.455Z,14.70
2018-12-23T14:17:03.181Z,16.87
2018-12-23T14:19:22.732Z,16.00
2018-12-23T14:21:49.219Z,14.57
2018-12-23T14:24:04.725Z,18.73
2018-12-23T14:26:23.319Z,15.80
2018-12-23T14:28:54.746Z,13.90
2018-12-23T14:31:00.116Z,19.33
2018-12-23T14:33:24.314Z,16.30
2018-12-23T14:36:07.757Z,17.83
2018-12-23T14:38:34.138Z,13.40
2018-12-23T14:41:29.763Z,13.83
2018-12-23T14:43:36.291Z,10.90
2018-12-23T14:45:52.915Z,13.97
2018-12-23T14:48:17.025Z,9.37
2018-12-23T14:50:22.269Z,15.47
2018-12-23T14:53:03.770Z,15.37
2018-12-23T14:55:22.751Z,13.83
2018-12-23T14:57:47.160Z,14.87
2018-12-23T15:00:07.265Z,13.97
2018-12-23T15:02:31.483Z,13.10
2018-12-23T15:04:55.627Z,9.37
2018-12-23T15:09:58.189Z,9.63
2018-12-23T15:12:14.448Z,6.87
2018-12-23T15:14:32.713Z,7.00
2018-12-23T15:16:58.325Z,9.03
2018-12-23T15:19:05.163Z,7.87
2018-12-23T15:21:29.258Z,8.90
2018-12-23T15:23:53.440Z,9.23
2018-12-23T15:26:15.253Z,9.70
2018-12-23T15:28:35.241Z,9.60
2018-12-23T15:30:57.308Z,8.50
2018-12-23T15:33:13.580Z,9.90
2018-12-23T15:38:12.976Z,8.40
2018-12-23T15:40:32.365Z,5.80
2018-12-23T15:42:49.153Z,8.30
2018-12-23T15:45:06.058Z,6.93
2018-12-23T15:47:22.272Z,7.20
2018-12-23T15:49:40.626Z,8.30
2018-12-23T15:52:05.899Z,6.40
2018-12-23T15:54:24.162Z,7.97
2018-12-23T15:56:42.272Z,8.77
2018-12-23T15:59:23.459Z,5.43
2018-12-23T16:01:34.237Z,9.67
2018-12-23T16:04:10.088Z,6.40
2018-12-23T16:06:19.869Z,7.70
2018-12-23T16:08:37.021Z,8.13
2018-12-23T16:10:53.243Z,8.20
2018-12-23T16:13:11.353Z,8.53
2018-12-23T16:15:16.699Z,8.77
2018-12-23T16:17:40.846Z,5.87
2018-12-23T16:22:40.898Z,7.83
2018-12-23T16:24:57.012Z,10.37
2018-12-23T16:27:13.808Z,9.97
2018-12-23T16:29:30.892Z,10.30
2018-12-23T16:31:47.855Z,8.77
2018-12-23T16:34:07.323Z,10.30
2018-12-23T16:36:24.372Z,11.37
2018-12-23T16:38:41.402Z,11.63
2018-12-23T16:40:58.411Z,11.47
2018-12-23T16:43:14.662Z,12.23
2018-12-23T16:45:33.354Z,10.23
2018-12-23T16:47:51.948Z,14.93
2018-12-23T16:50:11.528Z,16.13
2018-12-23T16:52:29.421Z,11.03
2018-12-23T16:54:46.679Z,15.27
2018-12-23T16:57:04.319Z,9.50
2018-12-23T16:59:21.342Z,11.43
2018-12-23T17:01:40.506Z,13.73
2018-12-23T17:03:57.500Z,11.83
2018-12-23T17:06:15.730Z,13.37
2018-12-23T17:08:32.360Z,10.97
2018-12-23T17:10:53.170Z,13.40
2018-12-23T17:13:15.822Z,14.70
2018-12-23T17:15:33.932Z,18.67
2018-12-23T17:17:53.227Z,14.83
2018-12-23T17:20:09.610Z,14.00
2018-12-23T17:22:26.363Z,17.67
2018-12-23T17:24:42.659Z,12.63
2018-12-23T17:29:11.726Z,16.10
2018-12-23T17:34:03.028Z,16.00
2018-12-23T17:36:20.143Z,15.97
2018-12-23T17:38:35.382Z,19.97
2018-12-23T17:40:54.069Z,20.67
2018-12-23T17:43:11.046Z,19.30
2018-12-23T17:45:27.951Z,24.23
2018-12-23T17:47:45.425Z,22.97
2018-12-23T17:50:05.114Z,23.20
2018-12-23T17:52:23.294Z,22.07
2018-12-23T17:54:39.604Z,21.10
2018-12-23T17:56:57.731Z,15.53
2018-12-23T17:59:21.855Z,20.83
2018-12-23T18:01:41.223Z,22.20
2018-12-23T18:04:02.726Z,20.37
2018-12-23T18:06:38.003Z,24.10
2018-12-23T18:08:50.018Z,20.90
2018-12-23T18:11:06.976Z,25.17
2018-12-23T18:13:29.728Z,18.27
2018-12-23T18:15:46.094Z,24.60
2018-12-23T18:20:26.082Z,17.83
2018-12-23T18:22:42.917Z,18.73
2018-12-23T18:24:59.993Z,18.50
2018-12-23T18:27:18.559Z,21.47
2018-12-23T18:30:01.376Z,18.83
2018-12-23T18:32:25.597Z,17.20
2018-12-23T18:34:45.996Z,19.77
2018-12-23T18:37:03.150Z,17.60
2018-12-23T18:39:20.153Z,19.40
2018-12-23T18:41:44.671Z,14.00
2018-12-23T18:46:40.737Z,15.13
2018-12-23T18:48:58.600Z,14.87
2018-12-23T18:51:17.530Z,16.00
2018-12-23T18:53:39.182Z,18.87
2018-12-23T18:55:56.268Z,15.97
2018-12-23T18:58:13.108Z,20.50
2018-12-23T19:00:33.696Z,21.23
2018-12-23T19:02:50.613Z,17.40
2018-12-23T19:05:06.902Z,22.03
2018-12-23T19:10:21.664Z,27.23
2018-12-23T19:12:38.377Z,23.77
2018-12-23T19:15:00.252Z,24.97
2018-12-23T19:17:17.250Z,24.87
2018-12-23T19:19:33.326Z,25.43
2018-12-23T19:21:49.583Z,26.80
2018-12-23T19:24:05.798Z,25.93
2018-12-23T19:26:24.510Z,25.87
2018-12-23T19:28:43.134Z,33.27
2018-12-23T19:31:02.606Z,33.50
2018-12-23T19:33:20.537Z,30.90
2018-12-23T19:35:38.669Z,36.43
2018-12-23T19:38:12.371Z,33.90
2018-12-23T19:40:17.695Z,35.90
2018-12-23T19:42:34.491Z,34.47
2018-12-23T19:44:52.677Z,35.73
2018-12-23T19:47:08.665Z,29.87
2018-12-23T19:49:28.565Z,32.27
2018-12-23T19:51:44.377Z,32.33
2018-12-23T19:54:01.029Z,33.80
2018-12-23T19:56:43.889Z,34.67
2018-12-23T19:59:02.902Z,32.83
2018-12-23T20:01:19.329Z,30.37
2018-12-23T20:03:35.534Z,33.07
2018-12-23T20:08:13.368Z,29.53
2018-12-23T20:10:29.488Z,33.33
2018-12-23T20:12:45.850Z,35.37
2018-12-23T20:17:25.259Z,44.97
2018-12-23T20:19:41.819Z,40.50
2018-12-23T20:22:00.015Z,39.70
2018-12-23T20:24:20.581Z,39.70
2018-12-23T20:26:36.551Z,32.43
2018-12-23T20:28:53.073Z,31.20
2018-12-23T20:31:09.365Z,30.30
2018-12-23T20:33:25.610Z,27.30
2018-12-23T20:35:41.873Z,31.03
2018-12-23T20:37:58.157Z,30.60
2018-12-23T20:40:14.879Z,24.90
2018-12-23T20:42:34.452Z,30.03
2018-12-23T20:44:50.661Z,26.17
2018-12-23T20:47:09.134Z,24.93
2018-12-23T20:49:44.698Z,26.67
2018-12-23T20:52:27.530Z,21.63
2018-12-23T20:54:44.122Z,20.63
2018-12-23T20:57:00.342Z,18.13
2018-12-23T20:59:16.678Z,15.87
2018-12-23T21:01:33.034Z,16.30
2018-12-23T21:03:55.285Z,13.23
2018-12-23T21:06:45.757Z,10.07
2018-12-23T21:09:02.142Z,9.47
2018-12-23T21:11:44.977Z,5.00
2018-12-23T21:14:30.447Z,3.83
2018-12-23T21:17:07.274Z,3.43
2018-12-23T21:19:15.129Z,2.87
2018-12-23T21:21:31.979Z,3.57
2018-12-23T21:24:28.666Z,2.63
2018-12-23T21:26:37.932Z,2.73
2018-12-23T21:29:47.469Z,3.47
2018-12-23T21:32:17.461Z,3.80
2018-12-23T21:34:36.352Z,2.70
2018-12-23T21:36:53.278Z,2.83
2018-12-23T21:39:09.648Z,2.37
2018-12-23T21:41:28.587Z,2.37
2018-12-23T21:43:44.814Z,2.13
2018-12-23T21:46:02.816Z,3.00
2018-12-23T21:48:21.859Z,4.07
2018-12-23T21:50:38.711Z,2.53
2018-12-23T21:52:54.991Z,3.63
2018-12-23T21:55:11.244Z,2.67
2018-12-23T21:57:34.086Z,1.90
2018-12-23T22:02:10.865Z,2.43
2018-12-23T22:04:28.705Z,5.13
2018-12-23T22:06:48.182Z,2.30
2018-12-23T22:09:06.358Z,2.77
2018-12-23T22:11:32.907Z,3.43
2018-12-23T22:13:45.123Z,1.90
2018-12-23T22:16:04.699Z,2.00
2018-12-23T22:18:21.251Z,1.70
2018-12-23T22:20:58.775Z,2.10
2018-12-23T22:23:10.926Z,3.87
2018-12-23T22:25:27.270Z,3.17
2018-12-23T22:30:04.002Z,2.47
2018-12-23T22:32:20.142Z,3.40
2018-12-23T22:34:36.639Z,3.47
2018-12-23T22:36:52.779Z,2.80
2018-12-23T22:39:12.155Z,1.53
2018-12-23T22:41:28.522Z,2.40
2018-12-23T22:43:44.861Z,1.50
2018-12-23T22:46:01.230Z,3.43
2018-12-23T22:48:18.007Z,1.87
2018-12-23T22:50:34.651Z,2.90
2018-12-23T22:52:51.339Z,2.77
2018-12-23T22:55:09.561Z,2.00
2018-12-23T22:57:25.730Z,1.30
2018-12-23T22:59:42.364Z,1.70
2018-12-23T23:01:59.186Z,2.23
2018-12-23T23:04:15.699Z,3.50
2018-12-23T23:06:32.260Z,2.30
2018-12-23T23:08:56.122Z,2.50
2018-12-23T23:11:15.435Z,1.00
2018-12-23T23:13:43.322Z,1.60
2018-12-23T23:16:10.375Z,6.53
2018-12-23T23:18:33.286Z,1.77
2018-12-23T23:21:17.578Z,1.27
2018-12-23T23:23:36.756Z,3.80
2018-12-23T23:28:36.124Z,2.93
2018-12-23T23:30:57.891Z,1.00
2018-12-23T23:33:16.055Z,1.57
2018-12-23T23:35:36.678Z,0.97
2018-12-23T23:40:38.711Z,1.33
2018-12-23T23:46:10.847Z,2.03
2018-12-23T23:51:43.863Z,1.43
2018-12-23T23:53:50.929Z,0.47
2018-12-23T23:56:11.046Z,0.53
2018-12-23T23:58:36.400Z,0.40
